Matteo Br — 9HA2979 — position and weather

sailwx.info

Track history (hours):
 
Tides and Currents Weather Stations Pressure Air Temp Water Temp Dewpoint Dewpoint Depression Visibility Wind Speed Wind Dir Waves Ship Positions

Matteo Br

Last reported at 2018-Feb-24 11:25 UTC. Time now 2018-Feb-25 11:29 UTC.
Position N 39°57' E 024°07'.

Length 157 m; draft 9.3 m.

Type: Cargo ship. MMSI: 229002000.

Date/timePositionNaut miles runAvg speedWind from/ knotsBaromVisibWave heightAir tempDewpointWater temp
2018-Feb-24 11:25N 39°57' E 024°07'511.4
2018-Feb-24 10:58N 39°60' E 024°13'1911.5
2018-Feb-24 09:22N 40°03' E 024°37'411.4
2018-Feb-24 09:00N 40°04' E 024°42'611.5
2018-Feb-24 08:30N 40°04' E 024°50'611.6
2018-Feb-24 08:00N 40°04' E 024°57'612.0
2018-Feb-24 07:29N 40°05' E 025°06'712.5
2018-Feb-24 06:56N 40°05' E 025°15'  
2018-Feb-22 00:46N 44°21' E 030°21'312.4
2018-Feb-22 00:30N 44°24' E 030°22'1412.2
2018-Feb-21 23:23N 44°37' E 030°28'612.3
2018-Feb-21 22:55N 44°43' E 030°30'612.3
2018-Feb-21 22:26N 44°48' E 030°32'9211.3
2018-Feb-21 14:15N 46°19' E 030°55'311.6
2018-Feb-21 13:59N 46°22' E 030°55'611.8
2018-Feb-21 13:30N 46°28' E 030°55'510.1
2018-Feb-21 13:00N 46°33' E 030°57'3 0.1
2018-Feb-20 09:18N 46°34' E 031°00'0 0.0
2018-Feb-18 19:05N 46°34' E 031°01'1 8.0
2018-Feb-18 18:57N 46°33' E 030°60'510.6
2018-Feb-18 18:29N 46°29' E 030°57'612.8
2018-Feb-18 17:59N 46°22' E 030°57'612.9
2018-Feb-18 17:30N 46°16' E 030°58'  
Track history (hours):
 
Tides and Currents Weather Stations Pressure Air Temp Water Temp Dewpoint Dewpoint Depression Visibility Wind Speed Wind Dir Waves Ship Positions

Matteo Br

Last reported at 2018-Feb-24 11:25 UTC. Time now 2018-Feb-25 11:29 UTC.
Position N 39°57' E 024°07'.

Length 157 m; draft 9.3 m.

Type: Cargo ship. MMSI: 229002000.

Date/timePositionNaut miles runAvg speedWind from/ knotsBaromVisibWave heightAir tempDewpointWater temp
2018-Feb-24 11:25N 39°57' E 024°07'511.4
2018-Feb-24 10:58N 39°60' E 024°13'1911.5
2018-Feb-24 09:22N 40°03' E 024°37'411.4
2018-Feb-24 09:00N 40°04' E 024°42'611.5
2018-Feb-24 08:30N 40°04' E 024°50'611.6
2018-Feb-24 08:00N 40°04' E 024°57'612.0
2018-Feb-24 07:29N 40°05' E 025°06'712.5
2018-Feb-24 06:56N 40°05' E 025°15'  
2018-Feb-22 00:46N 44°21' E 030°21'312.4
2018-Feb-22 00:30N 44°24' E 030°22'1412.2
2018-Feb-21 23:23N 44°37' E 030°28'612.3
2018-Feb-21 22:55N 44°43' E 030°30'612.3
2018-Feb-21 22:26N 44°48' E 030°32'9211.3
2018-Feb-21 14:15N 46°19' E 030°55'311.6
2018-Feb-21 13:59N 46°22' E 030°55'611.8
2018-Feb-21 13:30N 46°28' E 030°55'510.1
2018-Feb-21 13:00N 46°33' E 030°57'3 0.1
2018-Feb-20 09:18N 46°34' E 031°00'0 0.0
2018-Feb-18 19:05N 46°34' E 031°01'1 8.0
2018-Feb-18 18:57N 46°33' E 030°60'510.6
2018-Feb-18 18:29N 46°29' E 030°57'612.8
2018-Feb-18 17:59N 46°22' E 030°57'612.9
2018-Feb-18 17:30N 46°16' E 030°58'  

Dump ship's entire track history